Snyder, CO

1:28 AM MDT on March 27, 2015 (GMT -0600)
Ray Addition | | Change Station
CLOSE
Current Station
Personal Weather Station
Location: Brush, CO
Elevation: 4249 ft
Nearby Weather Stations

Elev 4249 ft 40.26 °N, 103.63 °W | Updated 35 seconds ago

Overcast
Overcast
44.7 °F
Feels Like 45 °F
N
0.0
Wind Variable Wind from SSE
Gusts 0.0 mph

Today
High -- | Low -- °F
--% Chance of Precip.
Yesterday
High -- | Low -- °F
Precip. -- in
6:46 AM 7:13 PM
Waxing Crescent, 50% visible
Pressure 30.17 in
Visibility 10.0 miles
Clouds Overcast 8500 ft
Windchill 45 °F
Dew Point 34 °F
Humidity 66%
Rainfall 0.00 in
Snow Depth Not available.
UV 0 out of 12
Pollen 9.30 out of 12
Air Quality Not available.
Flu Activity Not available.
METAR KFMM 270715Z AUTO 00000KT 10SM OVC085 06/00 A3017 RMK AO2 T00601005

More Conditions Fewer Conditions

Pressure 30.17 in
Visibility 10.0 miles
Clouds Overcast 8500 ft
Windchill 45 °F
Dew Point 34 °F
Humidity 66%
Rainfall 0.00 in
Snow Depth Not available.
UV 0 out of 12
Pollen 9.30 out of 12
Air Quality Not available.
Flu Activity Not available.
METAR KFMM 270715Z AUTO 00000KT 10SM OVC085 06/00 A3017 RMK AO2 T00601005

More Conditions Fewer Conditions

10-Day Weather Forecast

Almanac

Astronomy

Mar. 27, 2015 Rise Set
Actual Time
Civil Twilight
Nautical Twilight
Astronomical Twilight
Moon
Length of Visible Light
Length of Day
Tomorrow will be .
, % of the Moon is Illuminated

Today's Extremes

State Highs State Lows

Community

WunderPhotos

Upload Photos

1,808,701 photos uploaded!

WunderBlogs® & News

Nearby

Air Quality

  Air Quality AQ Index Pollutant
Not available.

Snow Depth

Station Depth Elevation

Earthquake Activity

City Distance Mag. Time & Date
Minimum magnitude displayed is 2.5.

Coastal Water Temperatures

Place Temperature

Stations

Nearby Weather Stations

Station Location Temp. Windchill Dew Point Humidity Wind Precip. Elev Updated Type